チタ の空港の天気 - METARとTAF

チタ・カダラ空港 ( UIAA / HTA ) - ロシア チタ
飛行場実況気象(Metar)
観測時間04/25 17:00 YAKT (04/25 08:00 UTC)
風向・風速不定 1m/s
視程10km以上
天気現象
なし
気温13℃
湿度12%
気圧1014hPa
METARUIAA 250800Z VRB01MPS 9999 NSC 13/M16 Q1014 R29/70D NOSIG RMK QFE702/0936
過去の天気等 Google飛行場航空写真 Wunderground天気予報

過去48時間のMETAR

飛行場予報(TAF)
発表時間: 4/25 14:00 YAKT (4/25 05:00 UTC)
予報対象時間: 25日15時 YAKT ~ 26日15時 YAKT
風向・風速南西 3m/s 瞬間風速 8m/s
視程10km以上
全天の4割程度の積乱雲 雲底高度 1220m
TAF UIAA 250500Z 2506/2606 22003G08MPS 9999 SCT040CB